FATB weather

Thorny Bush Game Lodge Airport
Hoedspruit, Limpopo, South Africa

Public forecast

Using degrees Celsius for public forecast. Weather courtesy of forecast.io.

METAR (pilot weather report)

Report is more than 6 hours old.

Closest report is Hoedspruit Air Force Base Airport, 6.9 nm (12.8 km) WNW. Retrieved 2019/07/14 15:00 UTC (1 day ago):

FAHS 141500Z AUTO 06005KT //// // ////// 23/06 Q1023

TAF (pilot weather forecast)

Forecast is more than 12 hours old.

Closest forecast is Hoedspruit Air Force Base Airport, 6.9 nm (12.8 km) WNW. Retrieved 2017/05/23 04:01 UTC (2 years ago):

TAF FAHS 230300Z 2304/2315 VRB02KT CAVOK TX29/2312ZTN12/2304Z